Weather at Kraków John Paul II International Airport

Public forecast

Using degrees Celsius for public forecast. Weather courtesy of forecast.io.

Current aviation weather report (METAR) for Kraków John Paul II International Airport

Retrieved 2020/11/29 02:30 UTC (27 minutes ago):

EPKK 290230Z 22007KT 1600 SN BR BKN005 BKN012 M00/M01 Q1019

Aviation forecast (TAF) for Kraków John Paul II International Airport

Retrieved 2020-11-29 03:37 UTC (0 seconds ago):

TAF EPKK 290230Z 2903/3003 27004KT 4000 -SN BR BKN013 TEMPO 2903/2909 1200 SN BKN006 BECMG 2915/2918 2000 BR TEMPO 2921/3003 1200 -SN BR BKN004